sensor_id;sensor_type;location;lat;lon;timestamp;temperature;humidity
2855;DHT22;1435;49.472;10.940;2023-04-06T00:00:31;2.60;92.80
2855;DHT22;1435;49.472;10.940;2023-04-06T00:05:33;2.50;93.20
2855;DHT22;1435;49.472;10.940;2023-04-06T00:10:35;2.50;93.50
2855;DHT22;1435;49.472;10.940;2023-04-06T00:15:38;2.40;93.60
2855;DHT22;1435;49.472;10.940;2023-04-06T00:20:39;2.40;93.90
2855;DHT22;1435;49.472;10.940;2023-04-06T00:25:41;2.20;93.70
2855;DHT22;1435;49.472;10.940;2023-04-06T00:30:44;2.20;93.90
2855;DHT22;1435;49.472;10.940;2023-04-06T00:35:46;2.20;94.40
2855;DHT22;1435;49.472;10.940;2023-04-06T00:40:48;2.10;94.60
2855;DHT22;1435;49.472;10.940;2023-04-06T00:45:51;2.00;94.70
2855;DHT22;1435;49.472;10.940;2023-04-06T00:50:53;2.00;94.90
2855;DHT22;1435;49.472;10.940;2023-04-06T00:55:54;1.90;95.20
2855;DHT22;1435;49.472;10.940;2023-04-06T01:00:57;1.90;95.40
2855;DHT22;1435;49.472;10.940;2023-04-06T01:05:59;1.80;95.50
2855;DHT22;1435;49.472;10.940;2023-04-06T01:11:01;1.80;95.40
2855;DHT22;1435;49.472;10.940;2023-04-06T01:16:05;1.70;95.60
2855;DHT22;1435;49.472;10.940;2023-04-06T01:21:07;1.70;96.20
2855;DHT22;1435;49.472;10.940;2023-04-06T01:26:10;1.60;96.50
2855;DHT22;1435;49.472;10.940;2023-04-06T01:31:12;1.50;96.80
2855;DHT22;1435;49.472;10.940;2023-04-06T01:36:14;1.50;97.10
2855;DHT22;1435;49.472;10.940;2023-04-06T01:41:17;1.40;97.10
2855;DHT22;1435;49.472;10.940;2023-04-06T01:46:18;1.30;97.20
2855;DHT22;1435;49.472;10.940;2023-04-06T01:51:20;1.30;97.20
2855;DHT22;1435;49.472;10.940;2023-04-06T01:56:24;1.30;97.50
2855;DHT22;1435;49.472;10.940;2023-04-06T02:01:25;1.30;97.80
2855;DHT22;1435;49.472;10.940;2023-04-06T02:06:27;1.20;98.10
2855;DHT22;1435;49.472;10.940;2023-04-06T02:11:30;1.10;98.30
2855;DHT22;1435;49.472;10.940;2023-04-06T02:16:32;1.00;98.60
2855;DHT22;1435;49.472;10.940;2023-04-06T02:21:34;1.00;98.80
2855;DHT22;1435;49.472;10.940;2023-04-06T02:26:37;1.00;99.00
2855;DHT22;1435;49.472;10.940;2023-04-06T02:31:38;0.90;99.00
2855;DHT22;1435;49.472;10.940;2023-04-06T02:36:40;0.90;99.20
2855;DHT22;1435;49.472;10.940;2023-04-06T02:41:43;0.80;99.50
2855;DHT22;1435;49.472;10.940;2023-04-06T02:46:45;0.80;99.80
2855;DHT22;1435;49.472;10.940;2023-04-06T02:51:47;0.80;99.60
2855;DHT22;1435;49.472;10.940;2023-04-06T02:56:50;0.70;99.60
2855;DHT22;1435;49.472;10.940;2023-04-06T03:01:51;0.70;99.50
2855;DHT22;1435;49.472;10.940;2023-04-06T03:06:54;0.70;99.80
2855;DHT22;1435;49.472;10.940;2023-04-06T03:11:57;0.60;99.80
2855;DHT22;1435;49.472;10.940;2023-04-06T03:17:01;0.60;99.70
2855;DHT22;1435;49.472;10.940;2023-04-06T03:22:03;0.60;99.90
2855;DHT22;1435;49.472;10.940;2023-04-06T03:27:06;0.50;99.90
2855;DHT22;1435;49.472;10.940;2023-04-06T03:32:08;0.40;99.90
2855;DHT22;1435;49.472;10.940;2023-04-06T03:37:10;0.40;99.90
2855;DHT22;1435;49.472;10.940;2023-04-06T03:42:13;0.40;99.90
2855;DHT22;1435;49.472;10.940;2023-04-06T03:47:15;0.40;99.90
2855;DHT22;1435;49.472;10.940;2023-04-06T03:52:17;0.30;99.90
2855;DHT22;1435;49.472;10.940;2023-04-06T03:57:20;0.30;99.90
2855;DHT22;1435;49.472;10.940;2023-04-06T04:02:22;0.20;99.90
2855;DHT22;1435;49.472;10.940;2023-04-06T04:07:23;0.20;99.90
2855;DHT22;1435;49.472;10.940;2023-04-06T04:12:26;0.20;99.90
2855;DHT22;1435;49.472;10.940;2023-04-06T04:17:28;0.20;99.90
2855;DHT22;1435;49.472;10.940;2023-04-06T04:22:30;0.20;99.90
2855;DHT22;1435;49.472;10.940;2023-04-06T04:27:33;0.20;99.90
2855;DHT22;1435;49.472;10.940;2023-04-06T04:32:35;0.10;99.90
2855;DHT22;1435;49.472;10.940;2023-04-06T04:37:37;0.10;99.90
2855;DHT22;1435;49.472;10.940;2023-04-06T04:42:40;0.00;99.90
2855;DHT22;1435;49.472;10.940;2023-04-06T04:47:41;0.00;99.90
2855;DHT22;1435;49.472;10.940;2023-04-06T04:52:43;0.00;99.90
2855;DHT22;1435;49.472;10.940;2023-04-06T04:57:46;0.00;99.90
2855;DHT22;1435;49.472;10.940;2023-04-06T05:02:48;0.00;99.90
2855;DHT22;1435;49.472;10.940;2023-04-06T05:07:50;0.00;99.90
2855;DHT22;1435;49.472;10.940;2023-04-06T05:12:53;-0.10;99.90
2855;DHT22;1435;49.472;10.940;2023-04-06T05:17:55;-0.10;99.90
2855;DHT22;1435;49.472;10.940;2023-04-06T05:22:56;-0.10;99.90
2855;DHT22;1435;49.472;10.940;2023-04-06T05:28:00;0.00;99.90
2855;DHT22;1435;49.472;10.940;2023-04-06T05:33:01;0.00;99.90
2855;DHT22;1435;49.472;10.940;2023-04-06T05:38:05;0.10;99.90
2855;DHT22;1435;49.472;10.940;2023-04-06T05:43:08;0.20;99.90
2855;DHT22;1435;49.472;10.940;2023-04-06T05:48:10;0.30;99.90
2855;DHT22;1435;49.472;10.940;2023-04-06T05:53:11;0.40;99.90
2855;DHT22;1435;49.472;10.940;2023-04-06T05:58:15;0.40;99.90
2855;DHT22;1435;49.472;10.940;2023-04-06T06:03:18;0.50;99.90
2855;DHT22;1435;49.472;10.940;2023-04-06T06:08:20;0.60;99.90
2855;DHT22;1435;49.472;10.940;2023-04-06T06:13:23;0.80;99.90
2855;DHT22;1435;49.472;10.940;2023-04-06T06:18:25;0.90;99.90
2855;DHT22;1435;49.472;10.940;2023-04-06T06:23:27;1.10;99.90
2855;DHT22;1435;49.472;10.940;2023-04-06T06:28:30;1.20;99.90
2855;DHT22;1435;49.472;10.940;2023-04-06T06:33:32;1.30;99.90
2855;DHT22;1435;49.472;10.940;2023-04-06T06:38:33;1.50;99.90
2855;DHT22;1435;49.472;10.940;2023-04-06T06:43:36;1.60;99.90
2855;DHT22;1435;49.472;10.940;2023-04-06T06:48:38;1.80;99.90
2855;DHT22;1435;49.472;10.940;2023-04-06T06:53:40;2.00;99.90
2855;DHT22;1435;49.472;10.940;2023-04-06T06:58:43;2.10;99.90
2855;DHT22;1435;49.472;10.940;2023-04-06T07:03:45;2.20;99.90
2855;DHT22;1435;49.472;10.940;2023-04-06T07:08:47;2.40;99.90
2855;DHT22;1435;49.472;10.940;2023-04-06T07:13:50;2.50;99.90
2855;DHT22;1435;49.472;10.940;2023-04-06T07:18:52;2.60;99.90
2855;DHT22;1435;49.472;10.940;2023-04-06T07:23:53;2.80;99.90
2855;DHT22;1435;49.472;10.940;2023-04-06T07:28:56;2.90;99.90
2855;DHT22;1435;49.472;10.940;2023-04-06T07:33:58;3.00;99.90
2855;DHT22;1435;49.472;10.940;2023-04-06T07:39:00;3.20;99.90
2855;DHT22;1435;49.472;10.940;2023-04-06T07:44:03;3.30;99.90
2855;DHT22;1435;49.472;10.940;2023-04-06T07:49:05;3.50;99.90
2855;DHT22;1435;49.472;10.940;2023-04-06T07:54:07;3.60;99.90
2855;DHT22;1435;49.472;10.940;2023-04-06T07:59:10;3.80;99.90
2855;DHT22;1435;49.472;10.940;2023-04-06T08:04:12;4.00;99.90
2855;DHT22;1435;49.472;10.940;2023-04-06T08:09:13;4.20;99.90
2855;DHT22;1435;49.472;10.940;2023-04-06T08:14:16;4.30;99.90
2855;DHT22;1435;49.472;10.940;2023-04-06T08:19:18;4.50;99.90
2855;DHT22;1435;49.472;10.940;2023-04-06T08:24:20;4.70;99.90
2855;DHT22;1435;49.472;10.940;2023-04-06T08:29:23;4.80;99.90
2855;DHT22;1435;49.472;10.940;2023-04-06T08:34:24;5.00;99.90
2855;DHT22;1435;49.472;10.940;2023-04-06T08:39:27;5.30;99.90
2855;DHT22;1435;49.472;10.940;2023-04-06T08:44:32;5.50;99.90
2855;DHT22;1435;49.472;10.940;2023-04-06T08:49:34;5.80;99.90
2855;DHT22;1435;49.472;10.940;2023-04-06T08:54:38;6.00;99.70
2855;DHT22;1435;49.472;10.940;2023-04-06T08:59:42;6.20;99.40
2855;DHT22;1435;49.472;10.940;2023-04-06T09:04:45;6.40;99.50
2855;DHT22;1435;49.472;10.940;2023-04-06T09:09:48;6.60;97.10
2855;DHT22;1435;49.472;10.940;2023-04-06T09:14:59;6.90;95.20
2855;DHT22;1435;49.472;10.940;2023-04-06T09:20:03;7.10;91.80
2855;DHT22;1435;49.472;10.940;2023-04-06T09:25:06;7.30;91.80
2855;DHT22;1435;49.472;10.940;2023-04-06T09:30:11;7.40;93.10
2855;DHT22;1435;49.472;10.940;2023-04-06T09:35:14;7.60;90.90
2855;DHT22;1435;49.472;10.940;2023-04-06T09:40:16;7.70;91.00
2855;DHT22;1435;49.472;10.940;2023-04-06T09:45:20;7.80;91.30
2855;DHT22;1435;49.472;10.940;2023-04-06T09:50:22;7.90;91.30
2855;DHT22;1435;49.472;10.940;2023-04-06T09:55:28;8.10;86.80
2855;DHT22;1435;49.472;10.940;2023-04-06T10:00:40;8.20;84.40
2855;DHT22;1435;49.472;10.940;2023-04-06T10:05:45;8.40;80.50
2855;DHT22;1435;49.472;10.940;2023-04-06T10:10:48;8.50;80.60
2855;DHT22;1435;49.472;10.940;2023-04-06T10:15:52;8.50;79.10
2855;DHT22;1435;49.472;10.940;2023-04-06T10:20:57;8.70;85.30
2855;DHT22;1435;49.472;10.940;2023-04-06T10:26:00;8.90;84.30
2855;DHT22;1435;49.472;10.940;2023-04-06T10:31:05;9.10;81.40
2855;DHT22;1435;49.472;10.940;2023-04-06T10:36:10;9.20;80.40
2855;DHT22;1435;49.472;10.940;2023-04-06T10:41:12;9.20;78.30
2855;DHT22;1435;49.472;10.940;2023-04-06T10:46:25;9.40;75.80
2855;DHT22;1435;49.472;10.940;2023-04-06T10:51:28;9.40;74.20
2855;DHT22;1435;49.472;10.940;2023-04-06T10:56:30;9.60;75.80
2855;DHT22;1435;49.472;10.940;2023-04-06T11:01:35;9.70;72.90
2855;DHT22;1435;49.472;10.940;2023-04-06T11:06:38;9.70;71.40
2855;DHT22;1435;49.472;10.940;2023-04-06T11:11:40;9.90;70.20
2855;DHT22;1435;49.472;10.940;2023-04-06T11:16:46;9.90;70.40
2855;DHT22;1435;49.472;10.940;2023-04-06T11:21:49;10.10;71.80
2855;DHT22;1435;49.472;10.940;2023-04-06T11:26:53;10.30;73.20
2855;DHT22;1435;49.472;10.940;2023-04-06T11:32:00;10.40;70.10
2855;DHT22;1435;49.472;10.940;2023-04-06T11:37:03;10.60;70.30
2855;DHT22;1435;49.472;10.940;2023-04-06T11:42:06;10.70;70.80
2855;DHT22;1435;49.472;10.940;2023-04-06T11:47:10;10.80;70.80
2855;DHT22;1435;49.472;10.940;2023-04-06T11:52:17;10.90;66.00
2855;DHT22;1435;49.472;10.940;2023-04-06T11:57:19;11.10;69.80
2855;DHT22;1435;49.472;10.940;2023-04-06T12:02:22;11.10;60.90
2855;DHT22;1435;49.472;10.940;2023-04-06T12:07:24;11.20;61.90
2855;DHT22;1435;49.472;10.940;2023-04-06T12:12:26;11.20;59.00
2855;DHT22;1435;49.472;10.940;2023-04-06T12:17:29;11.20;59.30
2855;DHT22;1435;49.472;10.940;2023-04-06T12:22:31;11.30;65.40
2855;DHT22;1435;49.472;10.940;2023-04-06T12:27:33;11.40;62.90
2855;DHT22;1435;49.472;10.940;2023-04-06T12:32:36;11.60;65.20
2855;DHT22;1435;49.472;10.940;2023-04-06T12:37:38;11.70;62.10
2855;DHT22;1435;49.472;10.940;2023-04-06T12:42:40;11.80;60.70
2855;DHT22;1435;49.472;10.940;2023-04-06T12:47:43;11.80;57.60
2855;DHT22;1435;49.472;10.940;2023-04-06T12:52:45;12.00;60.00
2855;DHT22;1435;49.472;10.940;2023-04-06T12:57:48;12.20;65.70
2855;DHT22;1435;49.472;10.940;2023-04-06T13:02:51;12.30;58.70
2855;DHT22;1435;49.472;10.940;2023-04-06T13:07:53;12.30;56.10
2855;DHT22;1435;49.472;10.940;2023-04-06T13:12:55;12.40;55.10
2855;DHT22;1435;49.472;10.940;2023-04-06T13:17:58;12.40;54.80
2855;DHT22;1435;49.472;10.940;2023-04-06T13:23:00;12.40;55.80
2855;DHT22;1435;49.472;10.940;2023-04-06T13:28:01;12.50;55.40
2855;DHT22;1435;49.472;10.940;2023-04-06T13:33:05;12.60;54.40
2855;DHT22;1435;49.472;10.940;2023-04-06T13:38:06;12.70;52.00
2855;DHT22;1435;49.472;10.940;2023-04-06T13:43:08;13.00;53.80
2855;DHT22;1435;49.472;10.940;2023-04-06T13:48:11;13.10;51.50
2855;DHT22;1435;49.472;10.940;2023-04-06T13:53:13;13.10;50.20
2855;DHT22;1435;49.472;10.940;2023-04-06T13:58:15;13.30;52.00
2855;DHT22;1435;49.472;10.940;2023-04-06T14:03:18;13.50;56.50
2855;DHT22;1435;49.472;10.940;2023-04-06T14:08:20;13.70;55.30
2855;DHT22;1435;49.472;10.940;2023-04-06T14:13:22;13.90;53.40
2855;DHT22;1435;49.472;10.940;2023-04-06T14:18:25;14.10;53.10
2855;DHT22;1435;49.472;10.940;2023-04-06T14:23:31;14.20;52.50
2855;DHT22;1435;49.472;10.940;2023-04-06T14:28:34;14.30;51.50
2855;DHT22;1435;49.472;10.940;2023-04-06T14:33:37;14.30;51.20
2855;DHT22;1435;49.472;10.940;2023-04-06T14:38:39;14.30;50.40
2855;DHT22;1435;49.472;10.940;2023-04-06T14:43:41;14.30;50.30
2855;DHT22;1435;49.472;10.940;2023-04-06T14:48:44;14.30;49.80
2855;DHT22;1435;49.472;10.940;2023-04-06T14:53:46;14.40;51.10
2855;DHT22;1435;49.472;10.940;2023-04-06T14:58:48;14.60;51.10
2855;DHT22;1435;49.472;10.940;2023-04-06T15:03:52;14.80;51.60
2855;DHT22;1435;49.472;10.940;2023-04-06T15:08:54;14.80;52.30
2855;DHT22;1435;49.472;10.940;2023-04-06T15:13:55;15.00;51.10
2855;DHT22;1435;49.472;10.940;2023-04-06T15:18:58;15.00;50.60
2855;DHT22;1435;49.472;10.940;2023-04-06T15:24:00;15.10;50.20
2855;DHT22;1435;49.472;10.940;2023-04-06T15:29:02;14.80;47.10
2855;DHT22;1435;49.472;10.940;2023-04-06T15:34:06;14.60;48.00
2855;DHT22;1435;49.472;10.940;2023-04-06T15:39:08;14.70;49.50
2855;DHT22;1435;49.472;10.940;2023-04-06T15:44:10;14.70;48.40
2855;DHT22;1435;49.472;10.940;2023-04-06T15:49:13;14.90;49.30
2855;DHT22;1435;49.472;10.940;2023-04-06T15:54:14;15.10;47.70
2855;DHT22;1435;49.472;10.940;2023-04-06T15:59:17;14.90;48.70
2855;DHT22;1435;49.472;10.940;2023-04-06T16:04:20;15.20;49.40
2855;DHT22;1435;49.472;10.940;2023-04-06T16:09:22;15.50;48.50
2855;DHT22;1435;49.472;10.940;2023-04-06T16:14:26;15.80;49.00
2855;DHT22;1435;49.472;10.940;2023-04-06T16:19:29;15.90;47.10
2855;DHT22;1435;49.472;10.940;2023-04-06T16:24:31;15.90;46.30
2855;DHT22;1435;49.472;10.940;2023-04-06T16:29:34;15.90;46.50
2855;DHT22;1435;49.472;10.940;2023-04-06T16:34:38;15.80;46.80
2855;DHT22;1435;49.472;10.940;2023-04-06T16:39:40;15.90;46.40
2855;DHT22;1435;49.472;10.940;2023-04-06T16:44:42;15.90;46.70
2855;DHT22;1435;49.472;10.940;2023-04-06T16:49:45;15.90;47.10
2855;DHT22;1435;49.472;10.940;2023-04-06T16:54:47;15.80;48.90
2855;DHT22;1435;49.472;10.940;2023-04-06T16:59:49;15.70;52.60
2855;DHT22;1435;49.472;10.940;2023-04-06T17:04:52;15.60;55.00
2855;DHT22;1435;49.472;10.940;2023-04-06T17:09:54;15.10;54.80
2855;DHT22;1435;49.472;10.940;2023-04-06T17:14:56;15.00;55.00
2855;DHT22;1435;49.472;10.940;2023-04-06T17:19:59;14.80;55.30
2855;DHT22;1435;49.472;10.940;2023-04-06T17:25:01;14.60;55.80
2855;DHT22;1435;49.472;10.940;2023-04-06T17:30:06;14.30;56.70
2855;DHT22;1435;49.472;10.940;2023-04-06T17:35:10;13.90;57.00
2855;DHT22;1435;49.472;10.940;2023-04-06T17:40:13;13.60;57.30
2855;DHT22;1435;49.472;10.940;2023-04-06T17:45:15;13.40;57.60
2855;DHT22;1435;49.472;10.940;2023-04-06T17:50:18;13.20;57.90
2855;DHT22;1435;49.472;10.940;2023-04-06T17:55:20;13.00;58.40
2855;DHT22;1435;49.472;10.940;2023-04-06T18:00:22;12.70;58.20
2855;DHT22;1435;49.472;10.940;2023-04-06T18:05:26;12.50;58.40
2855;DHT22;1435;49.472;10.940;2023-04-06T18:10:28;12.30;59.10
2855;DHT22;1435;49.472;10.940;2023-04-06T18:15:30;12.20;59.50
2855;DHT22;1435;49.472;10.940;2023-04-06T18:20:38;12.00;59.80
2855;DHT22;1435;49.472;10.940;2023-04-06T18:25:40;11.80;60.20
2855;DHT22;1435;49.472;10.940;2023-04-06T18:30:42;11.60;60.70
2855;DHT22;1435;49.472;10.940;2023-04-06T18:35:45;11.30;61.10
2855;DHT22;1435;49.472;10.940;2023-04-06T18:40:47;11.10;61.70
2855;DHT22;1435;49.472;10.940;2023-04-06T18:45:50;10.90;62.50
2855;DHT22;1435;49.472;10.940;2023-04-06T18:50:54;10.70;63.30
2855;DHT22;1435;49.472;10.940;2023-04-06T18:55:57;10.50;63.80
2855;DHT22;1435;49.472;10.940;2023-04-06T19:00:59;10.40;64.50
2855;DHT22;1435;49.472;10.940;2023-04-06T19:06:03;10.20;65.30
2855;DHT22;1435;49.472;10.940;2023-04-06T19:11:06;10.10;65.70
2855;DHT22;1435;49.472;10.940;2023-04-06T19:16:08;9.90;67.40
2855;DHT22;1435;49.472;10.940;2023-04-06T19:21:15;9.80;68.10
2855;DHT22;1435;49.472;10.940;2023-04-06T19:26:18;9.70;68.50
2855;DHT22;1435;49.472;10.940;2023-04-06T19:31:20;9.40;69.10
2855;DHT22;1435;49.472;10.940;2023-04-06T19:36:24;9.30;69.60
2855;DHT22;1435;49.472;10.940;2023-04-06T19:41:26;9.10;70.10
2855;DHT22;1435;49.472;10.940;2023-04-06T19:46:28;9.00;70.70
2855;DHT22;1435;49.472;10.940;2023-04-06T19:51:31;8.80;70.80
2855;DHT22;1435;49.472;10.940;2023-04-06T19:56:33;8.80;71.50
2855;DHT22;1435;49.472;10.940;2023-04-06T20:01:35;8.60;71.60
2855;DHT22;1435;49.472;10.940;2023-04-06T20:06:38;8.50;72.10
2855;DHT22;1435;49.472;10.940;2023-04-06T20:11:40;8.30;73.00
2855;DHT22;1435;49.472;10.940;2023-04-06T20:16:42;8.10;73.60
2855;DHT22;1435;49.472;10.940;2023-04-06T20:21:45;8.10;74.10
2855;DHT22;1435;49.472;10.940;2023-04-06T20:26:47;8.00;74.80
2855;DHT22;1435;49.472;10.940;2023-04-06T20:31:50;7.80;75.40
2855;DHT22;1435;49.472;10.940;2023-04-06T20:36:54;7.70;76.50
2855;DHT22;1435;49.472;10.940;2023-04-06T20:41:56;7.60;77.10
2855;DHT22;1435;49.472;10.940;2023-04-06T20:46:58;7.60;77.20
2855;DHT22;1435;49.472;10.940;2023-04-06T20:52:01;7.50;77.60
2855;DHT22;1435;49.472;10.940;2023-04-06T20:57:03;7.40;78.30
2855;DHT22;1435;49.472;10.940;2023-04-06T21:02:04;7.20;79.10
2855;DHT22;1435;49.472;10.940;2023-04-06T21:07:08;7.10;79.70
2855;DHT22;1435;49.472;10.940;2023-04-06T21:12:09;7.00;79.60
2855;DHT22;1435;49.472;10.940;2023-04-06T21:17:11;6.90;80.40
2855;DHT22;1435;49.472;10.940;2023-04-06T21:22:14;6.80;80.90
2855;DHT22;1435;49.472;10.940;2023-04-06T21:27:16;6.80;80.60
2855;DHT22;1435;49.472;10.940;2023-04-06T21:32:17;6.70;81.40
2855;DHT22;1435;49.472;10.940;2023-04-06T21:37:20;6.70;82.60
2855;DHT22;1435;49.472;10.940;2023-04-06T21:42:22;6.60;83.20
2855;DHT22;1435;49.472;10.940;2023-04-06T21:47:24;6.60;83.50
2855;DHT22;1435;49.472;10.940;2023-04-06T21:52:27;6.50;83.50
2855;DHT22;1435;49.472;10.940;2023-04-06T21:57:29;6.40;83.60
2855;DHT22;1435;49.472;10.940;2023-04-06T22:02:30;6.30;83.60
2855;DHT22;1435;49.472;10.940;2023-04-06T22:07:34;6.30;84.20
2855;DHT22;1435;49.472;10.940;2023-04-06T22:12:36;6.10;85.00
2855;DHT22;1435;49.472;10.940;2023-04-06T22:17:38;6.00;85.60
2855;DHT22;1435;49.472;10.940;2023-04-06T22:22:41;5.90;86.00
2855;DHT22;1435;49.472;10.940;2023-04-06T22:27:43;5.90;86.10
2855;DHT22;1435;49.472;10.940;2023-04-06T22:32:45;5.80;86.70
2855;DHT22;1435;49.472;10.940;2023-04-06T22:37:48;5.80;87.00
2855;DHT22;1435;49.472;10.940;2023-04-06T22:42:50;5.70;87.60
2855;DHT22;1435;49.472;10.940;2023-04-06T22:47:51;5.50;88.20
2855;DHT22;1435;49.472;10.940;2023-04-06T22:52:54;5.40;87.90
2855;DHT22;1435;49.472;10.940;2023-04-06T22:57:56;5.30;88.80
2855;DHT22;1435;49.472;10.940;2023-04-06T23:02:58;5.20;89.40
2855;DHT22;1435;49.472;10.940;2023-04-06T23:08:02;5.20;90.10
2855;DHT22;1435;49.472;10.940;2023-04-06T23:13:03;5.00;90.30
2855;DHT22;1435;49.472;10.940;2023-04-06T23:18:06;4.80;90.50
2855;DHT22;1435;49.472;10.940;2023-04-06T23:23:09;4.80;90.70
2855;DHT22;1435;49.472;10.940;2023-04-06T23:28:11;4.80;90.80
2855;DHT22;1435;49.472;10.940;2023-04-06T23:33:12;4.80;91.10
2855;DHT22;1435;49.472;10.940;2023-04-06T23:38:15;4.70;91.20
2855;DHT22;1435;49.472;10.940;2023-04-06T23:43:17;4.60;91.30
2855;DHT22;1435;49.472;10.940;2023-04-06T23:48:19;4.50;91.70
2855;DHT22;1435;49.472;10.940;2023-04-06T23:53:22;4.50;92.10
2855;DHT22;1435;49.472;10.940;2023-04-06T23:58:23;4.40;92.20
